sensor_id;sensor_type;location;lat;lon;timestamp;pressure;altitude;pressure_sealevel;temperature;humidity
41264;BME280;26998;48.714;9.414;2024-01-25T00:00:51;100071.63;;;8.13;73.09
41264;BME280;26998;48.714;9.414;2024-01-25T00:03:18;100066.53;;;8.12;72.47
41264;BME280;26998;48.714;9.414;2024-01-25T00:05:45;100070.31;;;8.09;73.32
41264;BME280;26998;48.714;9.414;2024-01-25T00:08:12;100050.88;;;8.10;72.25
41264;BME280;26998;48.714;9.414;2024-01-25T00:10:38;100065.78;;;8.18;73.23
41264;BME280;26998;48.714;9.414;2024-01-25T00:13:05;100064.97;;;8.17;72.87
41264;BME280;26998;48.714;9.414;2024-01-25T00:15:32;100067.16;;;8.29;72.38
41264;BME280;26998;48.714;9.414;2024-01-25T00:17:58;100056.59;;;8.29;72.61
41264;BME280;26998;48.714;9.414;2024-01-25T00:20:25;100053.75;;;8.30;72.33
41264;BME280;26998;48.714;9.414;2024-01-25T00:22:52;100046.94;;;8.21;72.86
41264;BME280;26998;48.714;9.414;2024-01-25T00:25:18;100062.06;;;8.12;73.61
41264;BME280;26998;48.714;9.414;2024-01-25T00:27:45;100052.31;;;8.13;73.20
41264;BME280;26998;48.714;9.414;2024-01-25T00:30:12;100045.78;;;8.09;73.31
41264;BME280;26998;48.714;9.414;2024-01-25T00:32:38;100045.09;;;8.21;72.66
41264;BME280;26998;48.714;9.414;2024-01-25T00:35:06;100047.31;;;8.33;72.43
41264;BME280;26998;48.714;9.414;2024-01-25T00:37:39;100043.50;;;8.56;71.60
41264;BME280;26998;48.714;9.414;2024-01-25T00:40:07;100034.34;;;8.38;72.61
41264;BME280;26998;48.714;9.414;2024-01-25T00:42:41;100044.59;;;8.26;72.78
41264;BME280;26998;48.714;9.414;2024-01-25T00:45:10;100053.75;;;8.30;72.42
41264;BME280;26998;48.714;9.414;2024-01-25T00:47:37;100033.72;;;8.36;71.86
41264;BME280;26998;48.714;9.414;2024-01-25T00:50:05;100028.47;;;8.57;71.55
41264;BME280;26998;48.714;9.414;2024-01-25T00:52:32;100032.41;;;9.30;67.52
41264;BME280;26998;48.714;9.414;2024-01-25T00:54:59;100026.88;;;9.53;67.38
41264;BME280;26998;48.714;9.414;2024-01-25T00:57:26;100025.63;;;9.49;67.06
41264;BME280;26998;48.714;9.414;2024-01-25T00:59:53;100028.53;;;9.54;66.83
41264;BME280;26998;48.714;9.414;2024-01-25T01:02:21;100025.19;;;9.73;66.28
41264;BME280;26998;48.714;9.414;2024-01-25T01:04:49;100027.47;;;9.83;66.11
41264;BME280;26998;48.714;9.414;2024-01-25T01:07:16;100031.50;;;9.79;66.16
41264;BME280;26998;48.714;9.414;2024-01-25T01:09:43;100031.56;;;9.85;66.28
41264;BME280;26998;48.714;9.414;2024-01-25T01:12:10;100013.09;;;9.58;66.54
41264;BME280;26998;48.714;9.414;2024-01-25T01:14:37;100024.75;;;9.70;66.77
41264;BME280;26998;48.714;9.414;2024-01-25T01:17:04;100034.53;;;9.69;67.25
41264;BME280;26998;48.714;9.414;2024-01-25T01:19:30;100024.78;;;9.42;67.85
41264;BME280;26998;48.714;9.414;2024-01-25T01:21:57;100017.16;;;9.32;68.56
41264;BME280;26998;48.714;9.414;2024-01-25T01:24:24;100016.28;;;9.53;67.89
41264;BME280;26998;48.714;9.414;2024-01-25T01:26:50;100026.72;;;9.95;66.16
41264;BME280;26998;48.714;9.414;2024-01-25T01:29:17;100023.44;;;9.93;66.31
41264;BME280;26998;48.714;9.414;2024-01-25T01:31:45;100025.81;;;10.09;65.28
41264;BME280;26998;48.714;9.414;2024-01-25T01:34:12;100032.09;;;10.08;65.70
41264;BME280;26998;48.714;9.414;2024-01-25T01:36:40;100014.69;;;9.93;66.37
41264;BME280;26998;48.714;9.414;2024-01-25T01:39:07;100021.53;;;9.81;66.66
41264;BME280;26998;48.714;9.414;2024-01-25T01:41:33;100011.09;;;9.66;66.93
41264;BME280;26998;48.714;9.414;2024-01-25T01:44:00;100020.81;;;9.59;68.63
41264;BME280;26998;48.714;9.414;2024-01-25T01:46:35;100016.69;;;9.50;68.96
41264;BME280;26998;48.714;9.414;2024-01-25T01:49:03;100012.69;;;9.33;68.83
41264;BME280;26998;48.714;9.414;2024-01-25T01:51:32;100019.84;;;9.39;68.35
41264;BME280;26998;48.714;9.414;2024-01-25T01:54:00;100019.34;;;9.50;68.11
41264;BME280;26998;48.714;9.414;2024-01-25T01:56:28;100024.38;;;9.45;68.13
41264;BME280;26998;48.714;9.414;2024-01-25T01:59:04;100021.38;;;9.89;66.74
41264;BME280;26998;48.714;9.414;2024-01-25T02:01:31;100025.91;;;9.95;66.49
41264;BME280;26998;48.714;9.414;2024-01-25T02:03:59;100027.91;;;9.86;66.33
41264;BME280;26998;48.714;9.414;2024-01-25T02:06:29;100026.47;;;9.56;68.22
41264;BME280;26998;48.714;9.414;2024-01-25T02:08:56;100031.22;;;9.33;69.03
41264;BME280;26998;48.714;9.414;2024-01-25T02:11:26;100025.75;;;9.13;70.54
41264;BME280;26998;48.714;9.414;2024-01-25T02:13:53;100028.53;;;9.26;69.72
41264;BME280;26998;48.714;9.414;2024-01-25T02:16:20;100006.16;;;9.63;68.65
41264;BME280;26998;48.714;9.414;2024-01-25T02:18:47;100022.50;;;9.39;69.33
41264;BME280;26998;48.714;9.414;2024-01-25T02:21:15;100016.28;;;9.53;68.32
41264;BME280;26998;48.714;9.414;2024-01-25T02:23:42;100020.81;;;9.59;67.75
41264;BME280;26998;48.714;9.414;2024-01-25T02:26:08;100009.25;;;10.01;65.71
41264;BME280;26998;48.714;9.414;2024-01-25T02:28:35;100009.31;;;10.14;65.45
41264;BME280;26998;48.714;9.414;2024-01-25T02:31:02;99992.84;;;9.84;66.07
41264;BME280;26998;48.714;9.414;2024-01-25T02:33:29;100008.44;;;10.07;65.73
41264;BME280;26998;48.714;9.414;2024-01-25T02:35:57;100011.50;;;10.04;65.61
41264;BME280;26998;48.714;9.414;2024-01-25T02:38:23;100012.81;;;10.21;64.35
41264;BME280;26998;48.714;9.414;2024-01-25T02:40:50;100017.72;;;10.24;64.31
41264;BME280;26998;48.714;9.414;2024-01-25T02:43:17;100023.22;;;10.29;64.03
41264;BME280;26998;48.714;9.414;2024-01-25T02:45:44;100024.44;;;10.26;63.42
41264;BME280;26998;48.714;9.414;2024-01-25T02:48:11;100016.88;;;10.17;64.29
41264;BME280;26998;48.714;9.414;2024-01-25T02:50:38;100017.72;;;10.24;63.80
41264;BME280;26998;48.714;9.414;2024-01-25T02:53:05;100026.03;;;10.14;64.31
41264;BME280;26998;48.714;9.414;2024-01-25T02:55:31;100024.66;;;10.25;63.74
41264;BME280;26998;48.714;9.414;2024-01-25T02:57:58;100032.59;;;10.25;63.63
41264;BME280;26998;48.714;9.414;2024-01-25T03:00:25;100024.59;;;10.18;63.37
41264;BME280;26998;48.714;9.414;2024-01-25T03:02:52;100017.94;;;10.29;63.47
41264;BME280;26998;48.714;9.414;2024-01-25T03:05:18;100027.72;;;10.28;63.54
41264;BME280;26998;48.714;9.414;2024-01-25T03:07:45;100016.28;;;10.21;63.79
41264;BME280;26998;48.714;9.414;2024-01-25T03:10:12;100018.09;;;10.14;64.10
41264;BME280;26998;48.714;9.414;2024-01-25T03:12:40;100023.63;;;10.26;63.74
41264;BME280;26998;48.714;9.414;2024-01-25T03:15:07;100024.22;;;10.21;63.92
41264;BME280;26998;48.714;9.414;2024-01-25T03:17:34;100033.38;;;10.19;63.76
41264;BME280;26998;48.714;9.414;2024-01-25T03:20:01;100037.47;;;10.21;63.82
41264;BME280;26998;48.714;9.414;2024-01-25T03:22:28;100048.97;;;10.01;64.36
41264;BME280;26998;48.714;9.414;2024-01-25T03:24:54;100053.28;;;10.08;63.78
41264;BME280;26998;48.714;9.414;2024-01-25T03:27:22;100048.22;;;10.13;64.00
41264;BME280;26998;48.714;9.414;2024-01-25T03:29:49;100052.94;;;10.18;63.46
41264;BME280;26998;48.714;9.414;2024-01-25T03:32:16;100032.09;;;10.08;63.71
41264;BME280;26998;48.714;9.414;2024-01-25T03:34:43;100045.28;;;10.02;64.13
41264;BME280;26998;48.714;9.414;2024-01-25T03:37:10;100048.75;;;10.02;64.19
41264;BME280;26998;48.714;9.414;2024-01-25T03:39:37;100048.13;;;9.94;64.44
41264;BME280;26998;48.714;9.414;2024-01-25T03:42:07;100061.38;;;10.00;64.43
41264;BME280;26998;48.714;9.414;2024-01-25T03:44:35;100046.72;;;10.04;64.03
41264;BME280;26998;48.714;9.414;2024-01-25T03:47:01;100060.94;;;9.97;65.21
41264;BME280;26998;48.714;9.414;2024-01-25T03:49:28;100071.34;;;9.98;64.80
41264;BME280;26998;48.714;9.414;2024-01-25T03:51:55;100069.84;;;9.89;64.73
41264;BME280;26998;48.714;9.414;2024-01-25T03:54:23;100077.66;;;9.97;65.26
41264;BME280;26998;48.714;9.414;2024-01-25T03:56:49;100075.81;;;9.98;65.13
41264;BME280;26998;48.714;9.414;2024-01-25T03:59:16;100075.44;;;10.01;65.36
41264;BME280;26998;48.714;9.414;2024-01-25T04:01:44;100075.81;;;9.98;65.36
41264;BME280;26998;48.714;9.414;2024-01-25T04:04:11;100081.53;;;10.01;65.34
41264;BME280;26998;48.714;9.414;2024-01-25T04:06:43;100085.13;;;9.87;65.90
41264;BME280;26998;48.714;9.414;2024-01-25T04:09:10;100089.06;;;9.98;65.95
41264;BME280;26998;48.714;9.414;2024-01-25T04:11:37;100094.16;;;9.99;65.86
41264;BME280;26998;48.714;9.414;2024-01-25T04:14:04;100083.22;;;9.75;66.21
41264;BME280;26998;48.714;9.414;2024-01-25T04:16:32;100088.00;;;9.92;66.08
41264;BME280;26998;48.714;9.414;2024-01-25T04:19:01;100093.50;;;9.91;66.13
41264;BME280;26998;48.714;9.414;2024-01-25T04:21:28;100090.03;;;9.90;65.85
41264;BME280;26998;48.714;9.414;2024-01-25T04:23:56;100100.97;;;9.81;66.92
41264;BME280;26998;48.714;9.414;2024-01-25T04:26:27;100097.41;;;9.67;67.52
41264;BME280;26998;48.714;9.414;2024-01-25T04:28:53;100094.81;;;9.74;66.73
41264;BME280;26998;48.714;9.414;2024-01-25T04:31:20;100092.97;;;9.74;66.38
41264;BME280;26998;48.714;9.414;2024-01-25T04:33:46;100092.56;;;9.71;66.99
41264;BME280;26998;48.714;9.414;2024-01-25T04:36:15;100090.06;;;9.63;67.66
41264;BME280;26998;48.714;9.414;2024-01-25T04:38:42;100088.66;;;9.67;66.75
41264;BME280;26998;48.714;9.414;2024-01-25T04:41:09;100092.94;;;9.68;66.56
41264;BME280;26998;48.714;9.414;2024-01-25T04:43:36;100089.94;;;9.50;67.41
41264;BME280;26998;48.714;9.414;2024-01-25T04:46:03;100081.81;;;9.51;67.01
41264;BME280;26998;48.714;9.414;2024-01-25T04:48:30;100094.25;;;9.51;67.44
41264;BME280;26998;48.714;9.414;2024-01-25T04:50:58;100100.56;;;9.56;67.40
41264;BME280;26998;48.714;9.414;2024-01-25T04:53:25;100101.84;;;9.60;67.25
41264;BME280;26998;48.714;9.414;2024-01-25T04:55:54;100109.56;;;9.62;67.02
41264;BME280;26998;48.714;9.414;2024-01-25T04:58:21;100116.44;;;9.56;66.93
41264;BME280;26998;48.714;9.414;2024-01-25T05:00:49;100118.81;;;9.45;67.70
41264;BME280;26998;48.714;9.414;2024-01-25T05:03:18;100126.25;;;9.56;67.13
41264;BME280;26998;48.714;9.414;2024-01-25T05:05:45;100122.63;;;9.63;67.22
41264;BME280;26998;48.714;9.414;2024-01-25T05:08:12;100105.06;;;9.56;66.19
41264;BME280;26998;48.714;9.414;2024-01-25T05:10:39;100118.09;;;9.57;66.30
41264;BME280;26998;48.714;9.414;2024-01-25T05:13:07;100112.38;;;9.54;66.60
41264;BME280;26998;48.714;9.414;2024-01-25T05:15:33;100117.63;;;9.47;66.19
41264;BME280;26998;48.714;9.414;2024-01-25T05:18:01;100112.34;;;9.47;66.95
41264;BME280;26998;48.714;9.414;2024-01-25T05:20:28;100130.41;;;9.44;66.98
41264;BME280;26998;48.714;9.414;2024-01-25T05:23:00;100131.34;;;9.36;66.67
41264;BME280;26998;48.714;9.414;2024-01-25T05:25:27;100124.53;;;9.27;66.73
41264;BME280;26998;48.714;9.414;2024-01-25T05:27:55;100139.22;;;9.29;66.30
41264;BME280;26998;48.714;9.414;2024-01-25T05:30:24;100132.41;;;9.20;65.77
41264;BME280;26998;48.714;9.414;2024-01-25T05:32:51;100126.00;;;9.08;65.74
41264;BME280;26998;48.714;9.414;2024-01-25T05:35:20;100136.19;;;9.11;65.76
41264;BME280;26998;48.714;9.414;2024-01-25T05:37:47;100151.34;;;9.03;65.93
41264;BME280;26998;48.714;9.414;2024-01-25T05:40:14;100147.72;;;9.04;66.50
41264;BME280;26998;48.714;9.414;2024-01-25T05:42:40;100149.16;;;9.06;65.67
41264;BME280;26998;48.714;9.414;2024-01-25T05:45:08;100139.53;;;8.99;65.72
41264;BME280;26998;48.714;9.414;2024-01-25T05:47:35;100134.78;;;8.94;66.16
41264;BME280;26998;48.714;9.414;2024-01-25T05:50:03;100142.97;;;8.78;66.72
41264;BME280;26998;48.714;9.414;2024-01-25T05:52:31;100143.63;;;8.66;67.38
41264;BME280;26998;48.714;9.414;2024-01-25T05:54:58;100145.59;;;8.28;67.76
41264;BME280;26998;48.714;9.414;2024-01-25T05:57:30;100149.44;;;8.61;66.96
41264;BME280;26998;48.714;9.414;2024-01-25T05:59:57;100161.03;;;8.60;66.26
41264;BME280;26998;48.714;9.414;2024-01-25T06:02:24;100158.50;;;8.38;68.40
41264;BME280;26998;48.714;9.414;2024-01-25T06:04:50;100150.41;;;8.25;68.44
41264;BME280;26998;48.714;9.414;2024-01-25T06:07:17;100157.00;;;7.91;70.57
41264;BME280;26998;48.714;9.414;2024-01-25T06:09:45;100163.00;;;7.63;71.33
41264;BME280;26998;48.714;9.414;2024-01-25T06:12:12;100165.81;;;7.47;71.85
41264;BME280;26998;48.714;9.414;2024-01-25T06:14:39;100166.38;;;7.34;72.65
41264;BME280;26998;48.714;9.414;2024-01-25T06:17:06;100168.31;;;7.18;73.53
41264;BME280;26998;48.714;9.414;2024-01-25T06:19:33;100175.78;;;7.06;73.82
41264;BME280;26998;48.714;9.414;2024-01-25T06:22:01;100174.44;;;6.87;74.37
41264;BME280;26998;48.714;9.414;2024-01-25T06:24:29;100171.97;;;6.86;74.47
41264;BME280;26998;48.714;9.414;2024-01-25T06:26:56;100167.06;;;6.83;74.28
41264;BME280;26998;48.714;9.414;2024-01-25T06:29:23;100166.66;;;6.63;74.95
41264;BME280;26998;48.714;9.414;2024-01-25T06:31:50;100179.00;;;6.63;75.55
41264;BME280;26998;48.714;9.414;2024-01-25T06:34:17;100183.63;;;6.61;75.17
41264;BME280;26998;48.714;9.414;2024-01-25T06:36:45;100185.84;;;6.41;76.65
41264;BME280;26998;48.714;9.414;2024-01-25T06:39:12;100192.25;;;6.47;75.87
41264;BME280;26998;48.714;9.414;2024-01-25T06:41:39;100191.75;;;6.35;76.25
41264;BME280;26998;48.714;9.414;2024-01-25T06:44:06;100190.66;;;6.30;76.49
41264;BME280;26998;48.714;9.414;2024-01-25T06:46:32;100183.13;;;6.11;77.20
41264;BME280;26998;48.714;9.414;2024-01-25T06:48:59;100173.94;;;5.99;77.83
41264;BME280;26998;48.714;9.414;2024-01-25T06:51:26;100185.78;;;5.95;78.12
41264;BME280;26998;48.714;9.414;2024-01-25T06:53:54;100184.63;;;5.89;77.87
41264;BME280;26998;48.714;9.414;2024-01-25T06:56:20;100191.19;;;5.77;78.31
41264;BME280;26998;48.714;9.414;2024-01-25T06:58:47;100188.56;;;5.77;77.49
41264;BME280;26998;48.714;9.414;2024-01-25T07:01:23;100199.56;;;5.64;78.15
41264;BME280;26998;48.714;9.414;2024-01-25T07:03:51;100192.50;;;5.65;78.52
41264;BME280;26998;48.714;9.414;2024-01-25T07:06:19;100203.53;;;5.60;78.73
41264;BME280;26998;48.714;9.414;2024-01-25T07:08:46;100202.53;;;5.53;78.74
41264;BME280;26998;48.714;9.414;2024-01-25T07:11:14;100190.38;;;5.44;79.45
41264;BME280;26998;48.714;9.414;2024-01-25T07:13:41;100192.16;;;5.44;78.99
41264;BME280;26998;48.714;9.414;2024-01-25T07:16:08;100202.19;;;5.40;79.61
41264;BME280;26998;48.714;9.414;2024-01-25T07:18:34;100202.03;;;5.50;78.88
41264;BME280;26998;48.714;9.414;2024-01-25T07:21:02;100198.56;;;5.57;78.95
41264;BME280;26998;48.714;9.414;2024-01-25T07:23:30;100195.97;;;5.49;79.34
41264;BME280;26998;48.714;9.414;2024-01-25T07:25:57;100204.50;;;5.51;79.06
41264;BME280;26998;48.714;9.414;2024-01-25T07:28:23;100212.72;;;5.48;79.56
41264;BME280;26998;48.714;9.414;2024-01-25T07:30:52;100221.44;;;5.57;79.24
41264;BME280;26998;48.714;9.414;2024-01-25T07:33:19;100226.38;;;5.60;79.02
41264;BME280;26998;48.714;9.414;2024-01-25T07:35:46;100223.09;;;5.66;79.02
41264;BME280;26998;48.714;9.414;2024-01-25T07:38:12;100208.28;;;5.73;78.52
41264;BME280;26998;48.714;9.414;2024-01-25T07:40:39;100221.63;;;5.88;78.60
41264;BME280;26998;48.714;9.414;2024-01-25T07:43:06;100218.97;;;5.96;78.01
41264;BME280;26998;48.714;9.414;2024-01-25T07:45:33;100213.06;;;6.02;78.14
41264;BME280;26998;48.714;9.414;2024-01-25T07:48:00;100210.41;;;6.18;77.16
41264;BME280;26998;48.714;9.414;2024-01-25T07:50:40;100211.03;;;6.36;76.66
41264;BME280;26998;48.714;9.414;2024-01-25T07:53:07;100203.94;;;6.36;75.94
41264;BME280;26998;48.714;9.414;2024-01-25T07:55:35;100208.88;;;6.39;76.28
41264;BME280;26998;48.714;9.414;2024-01-25T07:58:02;100196.47;;;6.56;74.85
41264;BME280;26998;48.714;9.414;2024-01-25T08:00:28;100204.44;;;6.78;73.95
41264;BME280;26998;48.714;9.414;2024-01-25T08:02:55;100202.75;;;6.85;73.40
41264;BME280;26998;48.714;9.414;2024-01-25T08:05:22;100206.81;;;6.96;73.32
41264;BME280;26998;48.714;9.414;2024-01-25T08:07:59;100222.59;;;7.04;73.09
41264;BME280;26998;48.714;9.414;2024-01-25T08:10:26;100223.72;;;7.10;73.63
41264;BME280;26998;48.714;9.414;2024-01-25T08:12:53;100225.31;;;7.19;73.68
41264;BME280;26998;48.714;9.414;2024-01-25T08:15:31;100230.38;;;7.28;73.37
41264;BME280;26998;48.714;9.414;2024-01-25T08:17:58;100233.94;;;7.58;72.46
41264;BME280;26998;48.714;9.414;2024-01-25T08:20:25;100225.44;;;7.70;71.84
41264;BME280;26998;48.714;9.414;2024-01-25T08:22:53;100229.81;;;8.00;71.60
41264;BME280;26998;48.714;9.414;2024-01-25T08:25:19;100237.63;;;7.94;71.70
41264;BME280;26998;48.714;9.414;2024-01-25T08:27:47;100229.91;;;8.30;70.26
41264;BME280;26998;48.714;9.414;2024-01-25T08:30:14;100237.66;;;8.60;69.37
41264;BME280;26998;48.714;9.414;2024-01-25T08:32:40;100235.38;;;8.86;67.94
41264;BME280;26998;48.714;9.414;2024-01-25T08:35:08;100222.03;;;8.94;66.82
41264;BME280;26998;48.714;9.414;2024-01-25T08:37:34;100223.72;;;9.16;67.05
41264;BME280;26998;48.714;9.414;2024-01-25T08:40:05;100223.50;;;9.32;66.87
41264;BME280;26998;48.714;9.414;2024-01-25T08:42:33;100227.34;;;9.30;65.96
41264;BME280;26998;48.714;9.414;2024-01-25T08:45:00;100234.59;;;9.43;65.62
41264;BME280;26998;48.714;9.414;2024-01-25T08:47:27;100250.22;;;9.38;66.27
41264;BME280;26998;48.714;9.414;2024-01-25T08:49:55;100245.25;;;9.13;66.62
41264;BME280;26998;48.714;9.414;2024-01-25T08:52:22;100249.25;;;9.24;66.59
41264;BME280;26998;48.714;9.414;2024-01-25T08:54:49;100261.25;;;9.62;66.42
41264;BME280;26998;48.714;9.414;2024-01-25T08:57:15;100253.00;;;9.72;65.18
41264;BME280;26998;48.714;9.414;2024-01-25T08:59:43;100258.50;;;10.12;64.12
41264;BME280;26998;48.714;9.414;2024-01-25T09:02:09;100263.97;;;9.90;64.80
41264;BME280;26998;48.714;9.414;2024-01-25T09:04:37;100269.28;;;10.38;64.39
41264;BME280;26998;48.714;9.414;2024-01-25T09:07:04;100271.34;;;10.71;61.44
41264;BME280;26998;48.714;9.414;2024-01-25T09:09:31;100265.06;;;10.78;61.67
41264;BME280;26998;48.714;9.414;2024-01-25T09:11:57;100262.16;;;11.07;60.65
41264;BME280;26998;48.714;9.414;2024-01-25T09:14:25;100266.06;;;11.18;59.43
41264;BME280;26998;48.714;9.414;2024-01-25T09:16:52;100268.94;;;11.23;59.38
41264;BME280;26998;48.714;9.414;2024-01-25T09:19:18;100270.47;;;11.58;57.53
41264;BME280;26998;48.714;9.414;2024-01-25T09:21:47;100257.19;;;11.58;58.08
41264;BME280;26998;48.714;9.414;2024-01-25T09:24:14;100268.94;;;11.90;56.69
41264;BME280;26998;48.714;9.414;2024-01-25T09:26:41;100270.53;;;11.78;57.61
41264;BME280;26998;48.714;9.414;2024-01-25T09:29:08;100272.22;;;12.11;55.48
41264;BME280;26998;48.714;9.414;2024-01-25T09:31:34;100283.88;;;12.23;55.16
41264;BME280;26998;48.714;9.414;2024-01-25T09:34:01;100286.69;;;12.48;54.21
41264;BME280;26998;48.714;9.414;2024-01-25T09:36:29;100286.72;;;12.41;55.21
41264;BME280;26998;48.714;9.414;2024-01-25T09:38:55;100294.31;;;12.25;56.12
41264;BME280;26998;48.714;9.414;2024-01-25T09:41:23;100286.72;;;11.96;56.37
41264;BME280;26998;48.714;9.414;2024-01-25T09:43:50;100293.03;;;12.34;54.65
41264;BME280;26998;48.714;9.414;2024-01-25T09:46:18;100279.31;;;12.69;53.67
41264;BME280;26998;48.714;9.414;2024-01-25T09:48:46;100289.72;;;12.84;54.09
41264;BME280;26998;48.714;9.414;2024-01-25T09:51:17;100296.66;;;13.11;53.43
41264;BME280;26998;48.714;9.414;2024-01-25T09:53:45;100294.22;;;12.84;52.08
41264;BME280;26998;48.714;9.414;2024-01-25T09:56:17;100290.97;;;12.82;52.73
41264;BME280;26998;48.714;9.414;2024-01-25T09:58:46;100291.22;;;12.34;53.45
41264;BME280;26998;48.714;9.414;2024-01-25T10:01:15;100291.00;;;12.49;53.97
41264;BME280;26998;48.714;9.414;2024-01-25T10:03:46;100294.25;;;12.70;52.87
41264;BME280;26998;48.714;9.414;2024-01-25T10:06:15;100292.56;;;12.96;50.32
41264;BME280;26998;48.714;9.414;2024-01-25T10:08:43;100286.41;;;13.08;50.41
41264;BME280;26998;48.714;9.414;2024-01-25T10:11:10;100300.41;;;12.51;52.06
41264;BME280;26998;48.714;9.414;2024-01-25T10:13:47;100287.75;;;12.40;52.34
41264;BME280;26998;48.714;9.414;2024-01-25T10:16:15;100291.44;;;12.20;52.46
41264;BME280;26998;48.714;9.414;2024-01-25T10:18:43;100289.34;;;11.83;53.90
41264;BME280;26998;48.714;9.414;2024-01-25T10:21:13;100289.22;;;11.37;55.33
41264;BME280;26998;48.714;9.414;2024-01-25T10:23:43;100292.22;;;10.80;56.58
41264;BME280;26998;48.714;9.414;2024-01-25T10:26:10;100293.47;;;10.91;55.19
41264;BME280;26998;48.714;9.414;2024-01-25T10:28:37;100285.13;;;10.94;53.80
41264;BME280;26998;48.714;9.414;2024-01-25T10:31:06;100286.13;;;10.93;53.70
41264;BME280;26998;48.714;9.414;2024-01-25T10:33:34;100280.84;;;10.99;53.46
41264;BME280;26998;48.714;9.414;2024-01-25T10:36:02;100269.75;;;10.76;53.89
41264;BME280;26998;48.714;9.414;2024-01-25T10:38:34;100271.75;;;10.74;53.91
41264;BME280;26998;48.714;9.414;2024-01-25T10:41:05;100265.59;;;10.67;54.49
41264;BME280;26998;48.714;9.414;2024-01-25T10:43:34;100270.44;;;10.57;54.73
41264;BME280;26998;48.714;9.414;2024-01-25T10:46:02;100263.13;;;10.59;54.76
41264;BME280;26998;48.714;9.414;2024-01-25T10:48:31;100266.81;;;10.65;54.49
41264;BME280;26998;48.714;9.414;2024-01-25T10:51:01;100268.47;;;10.72;54.03
41264;BME280;26998;48.714;9.414;2024-01-25T10:53:33;100266.88;;;10.43;55.25
41264;BME280;26998;48.714;9.414;2024-01-25T10:56:02;100256.22;;;10.65;54.65
41264;BME280;26998;48.714;9.414;2024-01-25T10:58:32;100257.41;;;11.03;53.19
41264;BME280;26998;48.714;9.414;2024-01-25T11:01:11;100252.22;;;11.29;52.31
41264;BME280;26998;48.714;9.414;2024-01-25T11:03:42;100248.38;;;11.44;51.71
41264;BME280;26998;48.714;9.414;2024-01-25T11:06:12;100245.50;;;11.39;51.61
41264;BME280;26998;48.714;9.414;2024-01-25T11:08:41;100242.13;;;11.65;51.65
41264;BME280;26998;48.714;9.414;2024-01-25T11:11:13;100236.97;;;11.63;50.88
41264;BME280;26998;48.714;9.414;2024-01-25T11:13:42;100234.53;;;11.55;52.16
41264;BME280;26998;48.714;9.414;2024-01-25T11:16:28;100231.72;;;11.70;51.22
41264;BME280;26998;48.714;9.414;2024-01-25T11:18:57;100225.50;;;11.37;52.19
41264;BME280;26998;48.714;9.414;2024-01-25T11:21:50;100213.28;;;11.62;51.62
41264;BME280;26998;48.714;9.414;2024-01-25T11:24:24;100207.00;;;12.28;50.03
41264;BME280;26998;48.714;9.414;2024-01-25T11:27:00;100202.09;;;13.02;47.94
41264;BME280;26998;48.714;9.414;2024-01-25T11:29:27;100200.34;;;13.21;46.77
41264;BME280;26998;48.714;9.414;2024-01-25T11:31:54;100196.69;;;13.22;46.42
41264;BME280;26998;48.714;9.414;2024-01-25T11:34:20;100201.56;;;13.25;46.49
41264;BME280;26998;48.714;9.414;2024-01-25T11:36:49;100195.91;;;13.15;46.52
41264;BME280;26998;48.714;9.414;2024-01-25T11:39:16;100192.06;;;12.91;47.71
41264;BME280;26998;48.714;9.414;2024-01-25T11:41:44;100178.97;;;13.03;48.78
41264;BME280;26998;48.714;9.414;2024-01-25T11:44:12;100190.88;;;13.62;46.62
41264;BME280;26998;48.714;9.414;2024-01-25T11:46:39;100186.34;;;13.94;45.03
41264;BME280;26998;48.714;9.414;2024-01-25T11:49:07;100184.81;;;13.80;45.02
41264;BME280;26998;48.714;9.414;2024-01-25T11:51:34;100174.06;;;13.62;45.83
41264;BME280;26998;48.714;9.414;2024-01-25T11:54:01;100177.19;;;13.59;46.05
41264;BME280;26998;48.714;9.414;2024-01-25T11:56:33;100175.56;;;13.27;47.55
41264;BME280;26998;48.714;9.414;2024-01-25T11:59:02;100175.19;;;13.54;47.54
41264;BME280;26998;48.714;9.414;2024-01-25T12:01:30;100176.00;;;14.04;44.76
41264;BME280;26998;48.714;9.414;2024-01-25T12:03:57;100174.84;;;13.69;45.68
41264;BME280;26998;48.714;9.414;2024-01-25T12:06:26;100174.94;;;13.25;47.19
41264;BME280;26998;48.714;9.414;2024-01-25T12:08:53;100184.59;;;13.19;46.97
41264;BME280;26998;48.714;9.414;2024-01-25T12:11:20;100177.84;;;13.23;47.80
41264;BME280;26998;48.714;9.414;2024-01-25T12:13:49;100177.09;;;12.97;47.53
41264;BME280;26998;48.714;9.414;2024-01-25T12:16:15;100170.88;;;12.65;48.46
41264;BME280;26998;48.714;9.414;2024-01-25T12:18:43;100161.56;;;12.36;49.95
41264;BME280;26998;48.714;9.414;2024-01-25T12:21:13;100163.06;;;12.06;50.92
41264;BME280;26998;48.714;9.414;2024-01-25T12:23:40;100166.28;;;12.34;51.23
41264;BME280;26998;48.714;9.414;2024-01-25T12:26:08;100167.31;;;12.91;48.37
41264;BME280;26998;48.714;9.414;2024-01-25T12:28:40;100158.03;;;13.13;46.76
41264;BME280;26998;48.714;9.414;2024-01-25T12:31:10;100153.94;;;13.10;47.52
41264;BME280;26998;48.714;9.414;2024-01-25T12:33:41;100156.09;;;13.26;47.46
41264;BME280;26998;48.714;9.414;2024-01-25T12:36:09;100140.69;;;13.35;46.79
41264;BME280;26998;48.714;9.414;2024-01-25T12:38:36;100142.84;;;13.20;47.00
41264;BME280;26998;48.714;9.414;2024-01-25T12:41:03;100144.16;;;12.98;47.55
41264;BME280;26998;48.714;9.414;2024-01-25T12:43:31;100139.63;;;12.60;48.57
41264;BME280;26998;48.714;9.414;2024-01-25T12:45:59;100135.59;;;12.38;49.68
41264;BME280;26998;48.714;9.414;2024-01-25T12:48:43;100133.19;;;12.30;50.07
41264;BME280;26998;48.714;9.414;2024-01-25T12:51:13;100131.50;;;12.49;49.17
41264;BME280;26998;48.714;9.414;2024-01-25T12:53:40;100144.38;;;12.45;48.97
41264;BME280;26998;48.714;9.414;2024-01-25T12:56:08;100144.13;;;12.53;49.69
41264;BME280;26998;48.714;9.414;2024-01-25T12:58:35;100138.50;;;12.81;49.21